createdAt,value
2023-04-23T00:03:02.285Z,97404.00
2023-04-23T00:08:28.797Z,97399.00
2023-04-23T00:13:56.472Z,97397.00
2023-04-23T00:19:19.645Z,97385.00
2023-04-23T00:24:41.712Z,97380.00
2023-04-23T00:30:04.442Z,97375.00
2023-04-23T00:35:28.334Z,97370.00
2023-04-23T00:40:50.465Z,97377.00
2023-04-23T00:46:35.242Z,97390.00
2023-04-23T00:52:18.520Z,97373.00
2023-04-23T00:57:59.345Z,97372.00
2023-04-23T01:03:59.397Z,97369.00
2023-04-23T01:09:46.841Z,97357.00
2023-04-23T01:15:10.462Z,97359.00
2023-04-23T01:20:32.332Z,97360.00
2023-04-23T01:26:09.686Z,97365.00
2023-04-23T01:32:16.870Z,97371.00
2023-04-23T01:38:00.203Z,97373.00
2023-04-23T01:43:50.801Z,97377.00
2023-04-23T01:49:20.248Z,97371.00
2023-04-23T01:54:42.557Z,97364.00
2023-04-23T02:00:11.479Z,97364.00
2023-04-23T02:05:46.314Z,97359.00
2023-04-23T02:11:39.305Z,97350.00
2023-04-23T02:17:20.913Z,97333.00
2023-04-23T02:23:06.974Z,97332.00
2023-04-23T02:28:34.116Z,97309.00
2023-04-23T02:34:01.571Z,97299.00
2023-04-23T02:39:23.678Z,97305.00
2023-04-23T02:44:45.058Z,97309.00
2023-04-23T02:50:07.772Z,97313.00
2023-04-23T02:55:32.082Z,97309.00
2023-04-23T03:00:54.430Z,97303.00
2023-04-23T03:06:16.572Z,97307.00
2023-04-23T03:12:04.032Z,97307.00
2023-04-23T03:17:47.608Z,97304.00
2023-04-23T03:23:37.441Z,97303.00
2023-04-23T03:29:05.998Z,97296.00
2023-04-23T03:34:28.181Z,97300.00
2023-04-23T03:39:49.445Z,97305.00
2023-04-23T03:45:11.591Z,97306.00
2023-04-23T03:50:38.919Z,97302.00
2023-04-23T03:56:35.048Z,97312.00
2023-04-23T04:02:33.602Z,97306.00
2023-04-23T04:08:21.406Z,97307.00
2023-04-23T04:13:44.349Z,97308.00
2023-04-23T04:19:12.477Z,97308.00
2023-04-23T04:24:35.730Z,97310.00
2023-04-23T04:29:57.348Z,97316.00
2023-04-23T04:35:19.083Z,97316.00
2023-04-23T04:40:41.014Z,97315.00
2023-04-23T04:46:24.524Z,97318.00
2023-04-23T04:52:07.531Z,97323.00
2023-04-23T04:57:51.370Z,97320.00
2023-04-23T05:03:39.852Z,97321.00
2023-04-23T05:09:04.051Z,97324.00
2023-04-23T05:14:26.824Z,97332.00
2023-04-23T05:19:48.213Z,97340.00
2023-04-23T05:25:14.610Z,97339.00
2023-04-23T05:30:36.459Z,97339.00
2023-04-23T05:36:27.268Z,97347.00
2023-04-23T05:42:09.473Z,97352.00
2023-04-23T05:53:28.513Z,97358.00
2023-04-23T05:59:05.551Z,97364.00
2023-04-23T06:04:42.795Z,97378.00
2023-04-23T06:10:12.637Z,97373.00
2023-04-23T06:15:36.296Z,97383.00
2023-04-23T06:21:26.199Z,97400.00
2023-04-23T06:27:18.466Z,97402.00
2023-04-23T06:33:01.909Z,97408.00
2023-04-23T06:38:33.860Z,97394.00
2023-04-23T06:44:03.710Z,97392.00
2023-04-23T06:49:42.706Z,97390.00
2023-04-23T06:55:04.536Z,97382.00
2023-04-23T07:00:27.445Z,97378.00
2023-04-23T07:06:11.189Z,97370.00
2023-04-23T07:11:37.636Z,97373.00
2023-04-23T07:17:17.000Z,97378.00
2023-04-23T07:23:05.461Z,97375.00
2023-04-23T07:28:42.708Z,97375.00
2023-04-23T07:34:11.061Z,97386.00
2023-04-23T07:39:34.540Z,97392.00
2023-04-23T07:44:55.966Z,97397.00
2023-04-23T07:50:17.215Z,97396.00
2023-04-23T07:55:39.885Z,97410.00
2023-04-23T08:01:02.049Z,97403.00
2023-04-23T08:06:41.938Z,97412.00
2023-04-23T08:12:48.102Z,97410.00
2023-04-23T08:18:27.930Z,97419.00
2023-04-23T08:24:08.073Z,97432.00
2023-04-23T08:29:30.905Z,97423.00
2023-04-23T08:34:52.516Z,97423.00
2023-04-23T08:40:14.364Z,97438.00
2023-04-23T08:45:41.625Z,97428.00
2023-04-23T08:57:25.873Z,97427.00
2023-04-23T09:03:11.694Z,97439.00
2023-04-23T09:08:39.298Z,97433.00
2023-04-23T09:14:13.411Z,97461.00
2023-04-23T09:19:36.645Z,97453.00
2023-04-23T09:25:01.575Z,97463.00
2023-04-23T09:30:25.457Z,97474.00
2023-04-23T09:35:50.038Z,97457.00
2023-04-23T09:41:42.821Z,97467.00
2023-04-23T09:47:25.679Z,97478.00
2023-04-23T09:53:07.176Z,97475.00
2023-04-23T09:58:54.404Z,97478.00
2023-04-23T10:04:32.170Z,97477.00
2023-04-23T10:10:10.906Z,97468.00
2023-04-23T10:15:34.290Z,97465.00
2023-04-23T10:21:23.079Z,97469.00
2023-04-23T10:27:17.699Z,97471.00
2023-04-23T10:33:01.895Z,97460.00
2023-04-23T10:38:24.040Z,97463.00
2023-04-23T10:44:01.884Z,97450.00
2023-04-23T10:49:25.548Z,97447.00
2023-04-23T10:55:02.336Z,97443.00
2023-04-23T11:00:23.884Z,97439.00
2023-04-23T11:06:09.924Z,97437.00
2023-04-23T11:12:17.043Z,97440.00
2023-04-23T11:18:01.895Z,97430.00
2023-04-23T11:23:47.263Z,97433.00
2023-04-23T11:29:17.032Z,97422.00
2023-04-23T11:34:45.205Z,97417.00
2023-04-23T11:40:12.190Z,97408.00
2023-04-23T11:45:33.783Z,97410.00
2023-04-23T11:51:05.781Z,97403.00
2023-04-23T11:56:58.965Z,97413.00
2023-04-23T12:02:42.761Z,97404.00
2023-04-23T12:08:11.689Z,97399.00
2023-04-23T12:13:57.501Z,97385.00
2023-04-23T12:19:29.287Z,97391.00
2023-04-23T12:24:55.051Z,97393.00
2023-04-23T12:30:16.503Z,97386.00
2023-04-23T12:35:46.474Z,97381.00
2023-04-23T12:41:24.842Z,97371.00
2023-04-23T12:47:30.106Z,97366.00
2023-04-23T12:53:09.665Z,97365.00
2023-04-23T12:58:53.109Z,97354.00
2023-04-23T13:04:33.251Z,97357.00
2023-04-23T13:10:03.967Z,97345.00
2023-04-23T13:15:29.287Z,97340.00
2023-04-23T13:21:02.920Z,97328.00
2023-04-23T13:26:43.705Z,97313.00
2023-04-23T13:32:22.655Z,97303.00
2023-04-23T13:38:03.834Z,97302.00
2023-04-23T13:43:42.336Z,97296.00
2023-04-23T13:49:10.387Z,97281.00
2023-04-23T13:54:33.536Z,97272.00
2023-04-23T13:59:55.973Z,97276.00
2023-04-23T14:05:36.411Z,97270.00
2023-04-23T14:11:51.180Z,97268.00
2023-04-23T14:18:00.566Z,97273.00
2023-04-23T14:24:07.287Z,97261.00
2023-04-23T14:29:41.372Z,97252.00
2023-04-23T14:35:03.693Z,97244.00
2023-04-23T14:40:25.241Z,97235.00
2023-04-23T14:45:47.154Z,97239.00
2023-04-23T14:51:30.909Z,97234.00
2023-04-23T14:57:15.059Z,97216.00
2023-04-23T15:02:48.688Z,97210.00
2023-04-23T15:08:18.183Z,97206.00
2023-04-23T15:14:15.178Z,97199.00
2023-04-23T15:19:38.383Z,97189.00
2023-04-23T15:24:59.983Z,97191.00
2023-04-23T15:30:23.558Z,97183.00
2023-04-23T15:35:45.139Z,97173.00
2023-04-23T15:41:32.247Z,97171.00
2023-04-23T15:47:19.414Z,97172.00
2023-04-23T15:53:07.739Z,97163.00
2023-04-23T15:58:39.603Z,97170.00
2023-04-23T16:04:27.138Z,97169.00
2023-04-23T16:10:13.353Z,97157.00
2023-04-23T16:15:37.035Z,97144.00
2023-04-23T16:21:20.762Z,97155.00
2023-04-23T16:27:13.740Z,97151.00
2023-04-23T16:32:58.991Z,97142.00
2023-04-23T16:38:35.856Z,97144.00
2023-04-23T16:44:18.808Z,97161.00
2023-04-23T16:49:41.003Z,97148.00
2023-04-23T16:55:02.395Z,97143.00
2023-04-23T17:00:24.002Z,97124.00
2023-04-23T17:06:12.347Z,97116.00
2023-04-23T17:12:02.058Z,97119.00
2023-04-23T17:17:55.298Z,97114.00
2023-04-23T17:23:28.204Z,97107.00
2023-04-23T17:29:04.230Z,97098.00
2023-04-23T17:34:33.442Z,97089.00
2023-04-23T17:39:55.584Z,97085.00
2023-04-23T17:45:18.647Z,97084.00
2023-04-23T17:50:40.850Z,97081.00
2023-04-23T17:56:29.656Z,97080.00
2023-04-23T18:02:20.918Z,97082.00
2023-04-23T18:07:43.358Z,97085.00
2023-04-23T18:13:17.943Z,97088.00
2023-04-23T18:19:05.284Z,97088.00
2023-04-23T18:24:28.215Z,97099.00
2023-04-23T18:29:49.805Z,97098.00
2023-04-23T18:35:11.444Z,97106.00
2023-04-23T18:40:33.165Z,97105.00
2023-04-23T18:52:15.572Z,97109.00
2023-04-23T19:03:47.648Z,97091.00
2023-04-23T19:09:36.381Z,97087.00
2023-04-23T19:14:59.559Z,97092.00
2023-04-23T19:20:21.191Z,97080.00
2023-04-23T19:25:42.826Z,97075.00
2023-04-23T19:31:41.644Z,97064.00
2023-04-23T19:37:28.208Z,97066.00
2023-04-23T19:43:00.411Z,97062.00
2023-04-23T19:48:35.307Z,97060.00
2023-04-23T19:54:08.990Z,97053.00
2023-04-23T19:59:31.801Z,97043.00
2023-04-23T20:05:04.852Z,97039.00
2023-04-23T20:10:30.704Z,97038.00
2023-04-23T20:22:04.147Z,97027.00
2023-04-23T20:27:48.449Z,97023.00
2023-04-23T20:33:35.352Z,97025.00
2023-04-23T20:39:09.329Z,97013.00
2023-04-23T20:44:32.231Z,97015.00
2023-04-23T20:49:53.740Z,97013.00
2023-04-23T20:55:15.085Z,97023.00
2023-04-23T21:00:37.158Z,97008.00
2023-04-23T21:05:59.160Z,97010.00
2023-04-23T21:11:27.083Z,97014.00
2023-04-23T21:16:49.486Z,96998.00
2023-04-23T21:22:25.303Z,96985.00
2023-04-23T21:28:09.040Z,97003.00
2023-04-23T21:33:50.921Z,97007.00
2023-04-23T21:39:18.766Z,96983.00
2023-04-23T21:44:41.276Z,96967.00
2023-04-23T21:50:03.262Z,96968.00
2023-04-23T21:55:31.513Z,96968.00
2023-04-23T22:00:54.614Z,96958.00
2023-04-23T22:06:39.784Z,96950.00
2023-04-23T22:12:18.081Z,96943.00
2023-04-23T22:17:57.962Z,96940.00
2023-04-23T22:23:39.146Z,96942.00
2023-04-23T22:29:09.859Z,96940.00
2023-04-23T22:34:32.272Z,96938.00
2023-04-23T22:39:54.160Z,96928.00
2023-04-23T22:45:15.817Z,96925.00
2023-04-23T22:50:40.165Z,96921.00
2023-04-23T22:56:25.585Z,96922.00
2023-04-23T23:07:47.451Z,96957.00
2023-04-23T23:13:23.685Z,96965.00
2023-04-23T23:18:57.564Z,96953.00
2023-04-23T23:24:22.813Z,96952.00
2023-04-23T23:29:44.688Z,96950.00
2023-04-23T23:35:06.992Z,96947.00
2023-04-23T23:40:30.502Z,96938.00
2023-04-23T23:45:59.554Z,96927.00
2023-04-23T23:51:31.148Z,96928.00
2023-04-23T23:57:16.622Z,96916.00
